Time;durP1;ratioP1;P1;durP2;ratioP2;P2;SDS_P1;SDS_P2;PMS_P1;PMS_P2;Temp;Humidity;BMP_temperature;BMP_pressure;BME280_temperature;BME280_humidity;BME280_pressure;Samples;Min_cycle;Max_cycle;Signal;HPM_P1;HPM_P2
2023/12/29 00:04:07;;;;;;;0.98;0.57;;;;;;;7.39;100.00;97989.03;15272512;19;20352;-65
2023/12/29 00:09:40;;;;;;;0.88;0.50;;;;;;;7.45;100.00;97998.28;15266264;19;20038;-65
2023/12/29 00:15:05;;;;;;;0.65;0.55;;;;;;;7.55;100.00;98001.75;15269193;19;20025;-65
2023/12/29 00:20:30;;;;;;;0.50;0.50;;;;;;;7.55;100.00;97983.81;15270869;19;20019;-65
2023/12/29 00:26:02;;;;;;;1.13;0.60;;;;;;;7.55;100.00;97988.34;15264687;19;20106;-65
2023/12/29 00:31:33;;;;;;;0.82;0.40;;;;;;;7.61;100.00;97981.53;15264560;19;20014;-65
2023/12/29 00:36:57;;;;;;;0.53;0.53;;;;;;;7.51;100.00;97981.59;15267997;19;20018;-64
2023/12/29 00:42:25;;;;;;;0.57;0.50;;;;;;;7.46;100.00;97995.44;15257517;19;20450;-65
2023/12/29 00:47:50;;;;;;;0.45;0.45;;;;;;;7.50;100.00;97974.53;15266065;19;20022;-65
2023/12/29 00:53:16;;;;;;;0.40;0.40;;;;;;;7.52;100.00;97956.47;15262909;19;20023;-65
2023/12/29 00:58:44;;;;;;;0.80;0.40;;;;;;;7.50;100.00;97948.59;15261283;19;20017;-64
2023/12/29 01:04:10;;;;;;;0.35;0.35;;;;;;;7.59;100.00;97954.00;15273043;19;20023;-64
2023/12/29 01:09:40;;;;;;;0.35;0.35;;;;;;;7.60;100.00;97951.16;15270334;19;20018;-63
2023/12/29 01:15:08;;;;;;;1.05;0.30;;;;;;;7.55;100.00;97945.44;15265639;19;20022;-62
2023/12/29 01:20:33;;;;;;;0.30;0.30;;;;;;;7.46;100.00;97965.13;15265802;19;20025;-62
2023/12/29 01:25:58;;;;;;;0.20;0.20;;;;;;;7.42;100.00;97961.06;15284986;19;20074;-62
2023/12/29 01:31:25;;;;;;;0.20;0.20;;;;;;;7.35;100.00;97945.56;15276661;19;20220;-62
2023/12/29 01:36:50;;;;;;;0.10;0.10;;;;;;;7.38;100.00;97934.56;15280073;19;20027;-62
2023/12/29 01:42:14;;;;;;;0.32;0.20;;;;;;;7.45;100.00;97925.94;15279680;19;20106;-62
2023/12/29 01:47:42;;;;;;;0.63;0.30;;;;;;;7.48;100.00;97912.19;15277334;19;20081;-61
2023/12/29 01:53:07;;;;;;;0.38;0.30;;;;;;;7.51;100.00;97912.75;15277766;19;20718;-61
2023/12/29 01:58:32;;;;;;;0.20;0.20;;;;;;;7.58;100.00;97902.25;15278233;19;20022;-61
2023/12/29 02:03:59;;;;;;;0.35;0.20;;;;;;;7.64;100.00;97916.88;15282072;19;20046;-61
2023/12/29 02:09:26;;;;;;;0.40;0.20;;;;;;;7.62;100.00;97908.97;15284699;19;20014;-62
2023/12/29 02:14:50;;;;;;;1.58;0.30;;;;;;;7.59;100.00;97905.75;15281288;19;20032;-62
2023/12/29 02:20:19;;;;;;;0.30;0.22;;;;;;;7.59;100.00;97898.56;15280992;19;20014;-60
2023/12/29 02:25:46;;;;;;;0.40;0.30;;;;;;;7.66;100.00;97896.09;15282373;19;20018;-62
2023/12/29 02:31:23;;;;;;;0.30;0.30;;;;;;;7.76;100.00;97885.28;15275716;19;20026;-62
2023/12/29 02:36:50;;;;;;;0.30;0.30;;;;;;;7.81;100.00;97882.97;15273041;19;20021;-62
2023/12/29 02:42:18;;;;;;;1.65;0.30;;;;;;;7.86;100.00;97886.88;15274742;19;20018;-61
2023/12/29 02:47:43;;;;;;;0.38;0.38;;;;;;;7.88;100.00;97875.97;15278575;19;20018;-62
2023/12/29 02:53:08;;;;;;;0.55;0.35;;;;;;;7.93;100.00;97862.09;15280227;19;20054;-61
2023/12/29 02:58:35;;;;;;;0.25;0.20;;;;;;;7.99;100.00;97864.16;15282137;19;20078;-60
2023/12/29 03:04:01;;;;;;;0.30;0.30;;;;;;;8.05;100.00;97846.59;15276184;19;20035;-61
2023/12/29 03:09:25;;;;;;;0.30;0.30;;;;;;;8.04;100.00;97842.22;15273484;19;20497;-61
2023/12/29 03:14:53;;;;;;;0.20;0.20;;;;;;;8.06;100.00;97824.94;15276811;19;20082;-61
2023/12/29 03:20:17;;;;;;;0.35;0.32;;;;;;;8.00;100.00;97829.13;15276140;19;20380;-62
2023/12/29 03:25:42;;;;;;;0.52;0.30;;;;;;;7.93;100.00;97836.13;15274659;19;20412;-62
2023/12/29 03:31:16;;;;;;;0.30;0.30;;;;;;;7.91;100.00;97816.66;15016921;19;5001189;-62
2023/12/29 03:36:40;;;;;;;0.57;0.35;;;;;;;8.02;100.00;97815.53;15268784;19;20029;-62
2023/12/29 03:42:05;;;;;;;0.50;0.47;;;;;;;8.05;100.00;97804.50;15268215;19;20516;-61
2023/12/29 03:47:33;;;;;;;0.45;0.43;;;;;;;8.09;100.00;97815.72;15277941;19;20042;-62
2023/12/29 03:52:58;;;;;;;0.85;0.40;;;;;;;8.07;100.00;97836.50;15276902;19;20006;-62
2023/12/29 03:58:22;;;;;;;0.40;0.40;;;;;;;8.12;100.00;97829.66;15274163;19;20023;-62
2023/12/29 04:03:51;;;;;;;0.45;0.45;;;;;;;8.13;100.00;97823.31;15274874;19;20020;-62
2023/12/29 04:09:16;;;;;;;0.60;0.52;;;;;;;8.12;100.00;97820.78;15276218;19;20022;-62
2023/12/29 04:14:40;;;;;;;0.80;0.55;;;;;;;8.12;100.00;97807.38;15272854;19;20086;-62
2023/12/29 04:20:09;;;;;;;0.88;0.50;;;;;;;8.13;100.00;97809.88;15275582;19;20014;-62
2023/12/29 04:25:34;;;;;;;0.68;0.40;;;;;;;8.22;100.00;97796.53;15269546;19;20018;-61
2023/12/29 04:31:05;;;;;;;0.40;0.40;;;;;;;8.25;100.00;97829.25;15271333;19;20093;-61
2023/12/29 04:36:33;;;;;;;0.75;0.43;;;;;;;8.29;100.00;97759.97;15278396;19;20018;-61
2023/12/29 04:42:00;;;;;;;0.65;0.38;;;;;;;8.31;100.00;97769.53;15271962;19;20017;-61
2023/12/29 04:47:24;;;;;;;1.02;0.50;;;;;;;8.29;100.00;97776.91;15272975;19;20688;-60
2023/12/29 04:52:52;;;;;;;1.10;0.60;;;;;;;8.26;100.00;97777.25;15274014;19;20018;-62
2023/12/29 04:58:17;;;;;;;1.38;0.98;;;;;;;8.17;100.00;97756.78;15273679;19;20022;-61
2023/12/29 05:03:41;;;;;;;0.98;0.63;;;;;;;8.15;100.00;97764.97;15287875;19;20018;-61
2023/12/29 05:09:09;;;;;;;0.60;0.60;;;;;;;8.18;100.00;97767.31;15289313;19;20011;-63
2023/12/29 05:14:34;;;;;;;1.13;0.60;;;;;;;8.20;100.00;97771.69;15284359;19;20023;-62
2023/12/29 05:20:00;;;;;;;0.75;0.60;;;;;;;8.23;100.00;97747.22;15285614;19;20022;-62
2023/12/29 05:25:28;;;;;;;1.70;0.60;;;;;;;8.21;100.00;97779.56;15284507;19;20025;-62
2023/12/29 05:31:03;;;;;;;0.60;0.50;;;;;;;8.12;100.00;97780.53;15285148;19;20037;-61
2023/12/29 05:36:27;;;;;;;0.98;0.43;;;;;;;8.21;100.00;97776.06;15286772;19;20025;-61
2023/12/29 05:41:55;;;;;;;1.55;0.50;;;;;;;8.21;100.00;97794.84;15285665;19;20018;-63
2023/12/29 05:47:21;;;;;;;1.45;0.60;;;;;;;8.12;100.00;97753.72;15287246;19;20378;-62
2023/12/29 05:52:51;;;;;;;0.65;0.50;;;;;;;8.08;100.00;97746.97;15280620;19;20819;-62
2023/12/29 05:58:19;;;;;;;1.52;0.55;;;;;;;8.10;100.00;97761.09;15283123;19;20458;-61
2023/12/29 06:03:45;;;;;;;1.30;0.52;;;;;;;8.12;100.00;97730.41;15282485;19;20087;-63
2023/12/29 06:09:10;;;;;;;1.10;0.40;;;;;;;8.14;100.00;97751.72;15286008;19;20604;-61
2023/12/29 06:14:38;;;;;;;1.05;0.50;;;;;;;8.14;100.00;97735.63;15286693;19;20043;-62
2023/12/29 06:20:06;;;;;;;2.47;0.60;;;;;;;8.11;100.00;97741.31;15278196;19;20034;-62
2023/12/29 06:25:32;;;;;;;0.85;0.60;;;;;;;8.12;100.00;97724.22;15279814;19;20022;-61
2023/12/29 06:31:00;;;;;;;1.42;0.50;;;;;;;8.11;100.00;97730.56;15282447;19;20023;-62
2023/12/29 06:36:26;;;;;;;1.10;0.50;;;;;;;8.10;100.00;97732.44;15277191;19;20014;-61
2023/12/29 06:41:52;;;;;;;0.90;0.57;;;;;;;8.04;100.00;97745.66;15282206;19;20022;-62
2023/12/29 06:47:21;;;;;;;1.17;0.60;;;;;;;8.08;100.00;97780.03;15280650;19;20094;-65
2023/12/29 06:52:46;;;;;;;1.35;0.60;;;;;;;8.11;100.00;97778.88;15274796;19;20420;-65
2023/12/29 06:58:12;;;;;;;1.23;0.60;;;;;;;8.12;100.00;97777.88;15282998;19;20022;-65
2023/12/29 07:03:39;;;;;;;1.33;0.60;;;;;;;8.25;100.00;97797.03;15282187;19;20011;-65
2023/12/29 07:09:05;;;;;;;1.67;0.70;;;;;;;8.31;100.00;97799.06;15283449;19;20031;-64
2023/12/29 07:14:31;;;;;;;1.77;0.55;;;;;;;8.38;100.00;97796.56;15282954;19;20106;-63
2023/12/29 07:19:59;;;;;;;1.33;0.60;;;;;;;8.50;100.00;97820.47;15252205;19;20011;-65
2023/12/29 07:25:24;;;;;;;1.23;0.75;;;;;;;8.58;100.00;97815.97;15271213;19;20035;-65
2023/12/29 07:30:48;;;;;;;1.60;0.60;;;;;;;8.64;100.00;97812.59;15272193;19;20035;-64
2023/12/29 07:36:15;;;;;;;1.13;0.60;;;;;;;8.62;100.00;97814.63;15279950;19;20010;-66
2023/12/29 07:41:40;;;;;;;1.00;0.50;;;;;;;8.61;100.00;97826.38;15276256;19;20077;-65
2023/12/29 07:47:10;;;;;;;2.85;0.50;;;;;;;8.70;100.00;97815.66;15275885;19;20495;-65
2023/12/29 07:52:39;;;;;;;2.15;0.70;;;;;;;8.73;100.00;97832.28;15272472;19;20391;-66
2023/12/29 07:58:04;;;;;;;2.42;0.80;;;;;;;8.69;100.00;97833.63;15267536;19;20022;-65
2023/12/29 08:03:28;;;;;;;2.10;0.60;;;;;;;8.74;100.00;97817.00;15270392;19;20746;-64
2023/12/29 08:08:56;;;;;;;2.53;0.60;;;;;;;8.76;100.00;97815.84;15273930;19;20474;-61
2023/12/29 08:14:21;;;;;;;1.10;0.63;;;;;;;8.84;100.00;97798.03;15276743;19;20015;-63
2023/12/29 08:19:46;;;;;;;2.03;0.90;;;;;;;8.88;100.00;97800.22;15271024;19;20538;-62
2023/12/29 08:25:14;;;;;;;1.35;0.60;;;;;;;8.87;100.00;97797.72;15267248;19;20011;-63
2023/12/29 08:30:40;;;;;;;1.52;0.52;;;;;;;8.88;100.00;97808.28;15269513;19;20018;-63
2023/12/29 08:36:05;;;;;;;1.00;0.60;;;;;;;8.91;100.00;97802.59;15285523;19;20019;-64
2023/12/29 08:41:32;;;;;;;1.20;0.50;;;;;;;8.93;100.00;97805.97;15278770;19;20026;-64
2023/12/29 08:46:57;;;;;;;1.35;0.60;;;;;;;8.98;100.00;97808.16;15281619;19;20014;-64
2023/12/29 08:52:21;;;;;;;1.25;0.60;;;;;;;9.03;100.00;97813.00;15273431;19;20021;-64
2023/12/29 08:57:49;;;;;;;2.17;0.57;;;;;;;9.04;100.00;97806.63;15286832;19;20014;-64
2023/12/29 09:03:14;;;;;;;1.85;0.60;;;;;;;9.07;100.00;97817.06;15276749;19;20018;-64
2023/12/29 09:08:38;;;;;;;2.45;0.63;;;;;;;9.04;100.00;97812.00;15285975;19;20015;-64
2023/12/29 09:14:05;;;;;;;1.23;0.70;;;;;;;9.06;100.00;97820.75;15288049;19;20049;-64
2023/12/29 09:19:30;;;;;;;1.38;0.70;;;;;;;9.10;100.00;97838.22;15286065;19;20022;-64
2023/12/29 09:24:58;;;;;;;1.60;0.60;;;;;;;9.14;100.00;97823.44;15283249;19;20033;-65
2023/12/29 09:30:26;;;;;;;1.90;0.70;;;;;;;9.14;100.00;97836.03;15283156;19;20018;-65
2023/12/29 09:35:50;;;;;;;1.00;0.57;;;;;;;9.12;100.00;97825.44;15256783;19;20038;-64
2023/12/29 09:41:23;;;;;;;1.33;0.50;;;;;;;9.12;100.00;97833.50;15285533;19;20006;-64
2023/12/29 09:46:55;;;;;;;2.50;0.55;;;;;;;9.18;100.00;97826.63;15281682;19;20011;-64
2023/12/29 09:52:22;;;;;;;2.15;0.50;;;;;;;9.22;100.00;97814.53;15280241;19;20024;-66
2023/12/29 09:57:47;;;;;;;2.25;0.60;;;;;;;9.25;100.00;97835.72;15279775;19;20822;-65
2023/12/29 10:03:16;;;;;;;1.83;0.63;;;;;;;9.31;100.00;97807.31;15275238;19;20025;-64
2023/12/29 10:08:37;;;;;;;1.40;0.60;;;;;;;9.31;100.00;97820.75;15276853;19;20033;-64
2023/12/29 10:14:05;;;;;;;2.97;0.75;;;;;;;9.34;100.00;97804.31;15286008;19;20027;-63
2023/12/29 10:19:42;;;;;;;1.63;0.60;;;;;;;9.41;100.00;97798.06;15281517;19;20089;-64
2023/12/29 10:25:07;;;;;;;1.25;0.70;;;;;;;9.46;100.00;97800.28;15281345;19;20017;-63
2023/12/29 10:30:33;;;;;;;0.52;0.50;;;;;;;9.48;100.00;97814.34;15274738;19;20025;-63
2023/12/29 10:36:06;;;;;;;1.33;0.57;;;;;;;9.63;100.00;97808.28;15285254;19;20026;-64
2023/12/29 10:41:32;;;;;;;1.00;0.60;;;;;;;9.78;100.00;97813.81;15278314;19;20025;-63
2023/12/29 10:46:58;;;;;;;0.57;0.50;;;;;;;9.83;100.00;97804.22;15283307;19;20014;-63
2023/12/29 10:52:25;;;;;;;0.70;0.43;;;;;;;9.78;100.00;97789.59;15281308;19;20017;-62
2023/12/29 10:58:02;;;;;;;2.25;0.60;;;;;;;9.68;100.00;97787.94;15281247;19;20086;-64
2023/12/29 11:03:27;;;;;;;2.47;0.50;;;;;;;9.68;100.00;97776.38;15278181;19;20018;-65
2023/12/29 11:08:54;;;;;;;2.65;0.63;;;;;;;9.73;100.00;97776.66;15278564;19;20021;-63
2023/12/29 11:14:20;;;;;;;0.98;0.50;;;;;;;9.73;100.00;97782.06;15310051;19;20027;-65
2023/12/29 11:19:49;;;;;;;1.70;0.68;;;;;;;9.76;100.00;97792.47;15274040;19;20034;-65
2023/12/29 11:25:18;;;;;;;1.13;0.52;;;;;;;9.83;100.00;97774.63;15276891;19;20018;-65
2023/12/29 11:30:43;;;;;;;1.33;0.55;;;;;;;9.91;100.00;97770.25;15272153;19;20037;-63
2023/12/29 11:36:16;;;;;;;0.80;0.60;;;;;;;9.98;100.00;97773.91;15275458;19;20010;-63
2023/12/29 11:41:59;;;;;;;1.42;0.60;;;;;;;10.12;100.00;97775.88;15269199;19;20024;-63
2023/12/29 11:47:44;;;;;;;2.05;0.50;;;;;;;10.13;100.00;97780.25;15274293;19;20018;-64
2023/12/29 11:53:11;;;;;;;1.15;0.50;;;;;;;10.09;100.00;97783.47;15276118;19;20015;-63
2023/12/29 11:58:38;;;;;;;2.67;0.60;;;;;;;10.05;100.00;97758.78;15273905;19;20016;-63
2023/12/29 12:04:03;;;;;;;0.55;0.50;;;;;;;10.03;100.00;97780.44;15262547;19;21218;-64
2023/12/29 12:09:31;;;;;;;0.90;0.50;;;;;;;10.03;100.00;97775.06;15271941;19;20078;-64
2023/12/29 12:14:58;;;;;;;1.10;0.60;;;;;;;10.01;100.00;97762.81;15266513;19;20010;-64
2023/12/29 12:20:23;;;;;;;1.60;0.47;;;;;;;10.04;100.00;97767.84;15269776;19;20561;-63
2023/12/29 12:25:48;;;;;;;1.13;0.57;;;;;;;10.06;100.00;97746.97;15268074;19;20855;-64
2023/12/29 12:31:23;;;;;;;0.85;0.40;;;;;;;10.05;100.00;97749.84;15268400;19;20098;-64
2023/12/29 12:36:51;;;;;;;3.08;0.43;;;;;;;10.08;100.00;97750.31;15270031;19;20021;-64
2023/12/29 12:42:16;;;;;;;1.00;0.60;;;;;;;10.07;100.00;97743.25;15267181;19;20070;-63
2023/12/29 12:47:47;;;;;;;0.85;0.47;;;;;;;10.06;100.00;97752.34;15266520;19;20564;-63
2023/12/29 12:53:19;;;;;;;1.08;0.50;;;;;;;10.07;100.00;97748.63;15271256;19;20027;-64
2023/12/29 12:58:45;;;;;;;0.70;0.40;;;;;;;10.10;100.00;97744.78;15270060;19;20021;-64
2023/12/29 13:04:14;;;;;;;1.98;0.40;;;;;;;10.07;100.00;97747.81;15268497;19;20017;-63
2023/12/29 13:09:40;;;;;;;1.83;0.70;;;;;;;10.08;100.00;97754.88;15269965;19;20018;-64
2023/12/29 13:15:15;;;;;;;0.60;0.30;;;;;;;10.10;100.00;97750.16;15265135;19;20018;-65
2023/12/29 13:20:49;;;;;;;1.10;0.32;;;;;;;10.11;100.00;97739.22;15269423;19;20018;-64
2023/12/29 13:26:18;;;;;;;1.38;0.40;;;;;;;10.09;100.00;97729.66;15279772;19;20025;-63
2023/12/29 13:31:50;;;;;;;0.40;0.38;;;;;;;10.04;100.00;97749.00;15272509;19;20022;-63
2023/12/29 13:37:27;;;;;;;0.57;0.40;;;;;;;10.03;100.00;97729.31;15287805;19;20018;-63
2023/12/29 13:42:56;;;;;;;0.88;0.40;;;;;;;10.03;100.00;97731.19;15280339;19;20479;-64
2023/12/29 13:48:22;;;;;;;0.75;0.43;;;;;;;10.03;100.00;97726.63;15284138;19;20089;-64
2023/12/29 13:53:50;;;;;;;0.40;0.30;;;;;;;10.02;100.00;97724.13;15284743;19;20034;-65
2023/12/29 13:59:15;;;;;;;1.45;0.40;;;;;;;10.02;100.00;97729.50;15282657;19;20090;-65
2023/12/29 14:04:40;;;;;;;1.70;0.47;;;;;;;10.03;100.00;97729.31;15284475;19;20077;-64
2023/12/29 14:10:09;;;;;;;1.10;0.40;;;;;;;10.06;100.00;97720.06;15283063;19;20377;-66
2023/12/29 14:15:34;;;;;;;0.60;0.40;;;;;;;10.09;100.00;97721.56;15285647;19;20006;-64
2023/12/29 14:20:59;;;;;;;0.63;0.22;;;;;;;10.06;100.00;97730.81;15280233;19;20468;-64
2023/12/29 14:26:26;;;;;;;0.68;0.50;;;;;;;10.08;100.00;97711.81;15278759;19;20018;-64
2023/12/29 14:31:59;;;;;;;1.05;0.40;;;;;;;10.05;100.00;97723.78;15273550;19;20018;-64
2023/12/29 14:37:25;;;;;;;1.00;0.50;;;;;;;10.02;100.00;97729.50;15284682;19;20561;-64
2023/12/29 14:42:53;;;;;;;0.95;0.40;;;;;;;9.97;100.00;97716.56;15276784;19;20023;-64
2023/12/29 14:48:20;;;;;;;1.20;0.40;;;;;;;9.98;100.00;97714.72;15282442;19;20015;-64
2023/12/29 14:53:46;;;;;;;1.33;0.50;;;;;;;9.96;100.00;97716.72;15283085;19;20013;-64
2023/12/29 14:59:13;;;;;;;0.80;0.40;;;;;;;9.92;100.00;97712.75;15282377;19;20050;-63
2023/12/29 15:04:38;;;;;;;0.73;0.30;;;;;;;9.91;100.00;97713.75;15276051;19;20050;-64
2023/12/29 15:10:03;;;;;;;0.47;0.40;;;;;;;9.86;100.00;97698.97;15274861;19;20467;-65
2023/12/29 15:15:30;;;;;;;1.80;0.40;;;;;;;9.83;100.00;97699.28;15278987;19;20333;-64
2023/12/29 15:20:56;;;;;;;0.52;0.30;;;;;;;9.78;100.00;97685.53;15274219;19;20454;-64
2023/12/29 15:26:20;;;;;;;1.00;0.50;;;;;;;9.77;100.00;97693.78;15267078;19;20014;-63
2023/12/29 15:31:54;;;;;;;1.20;0.60;;;;;;;9.78;100.00;97695.44;15270962;19;20031;-63
2023/12/29 15:37:19;;;;;;;1.38;0.60;;;;;;;9.76;100.00;97657.16;15274016;19;20494;-63
2023/12/29 15:42:43;;;;;;;0.95;0.50;;;;;;;9.69;100.00;97687.41;15269959;19;20069;-62
2023/12/29 15:48:12;;;;;;;0.90;0.43;;;;;;;9.68;100.00;97695.69;15270736;19;20341;-64
2023/12/29 15:53:36;;;;;;;1.55;0.60;;;;;;;9.62;100.00;97696.34;15272511;19;20019;-63
2023/12/29 15:59:01;;;;;;;1.05;0.60;;;;;;;9.64;100.00;97711.28;15270135;19;20379;-63
2023/12/29 16:04:35;;;;;;;1.25;0.52;;;;;;;9.71;100.00;97684.53;15274502;19;20475;-63
2023/12/29 16:10:00;;;;;;;1.13;0.63;;;;;;;9.74;100.00;97696.84;15273404;19;20760;-63
2023/12/29 16:15:25;;;;;;;0.60;0.38;;;;;;;9.75;100.00;97702.03;15274084;19;20018;-63
2023/12/29 16:20:52;;;;;;;0.65;0.47;;;;;;;9.79;100.00;97686.38;15270159;19;20014;-64
2023/12/29 16:26:18;;;;;;;1.55;0.45;;;;;;;9.79;100.00;97687.22;15265653;19;20734;-65
2023/12/29 16:31:56;;;;;;;1.00;0.50;;;;;;;9.80;100.00;97675.47;15265127;19;20046;-63
2023/12/29 16:37:25;;;;;;;0.80;0.40;;;;;;;9.78;100.00;97682.84;15266464;19;20361;-63
2023/12/29 16:42:52;;;;;;;0.80;0.40;;;;;;;9.82;100.00;97680.66;15268343;19;20026;-64
2023/12/29 16:48:17;;;;;;;0.52;0.43;;;;;;;9.85;100.00;97670.38;15269111;19;20082;-64
2023/12/29 16:53:44;;;;;;;0.80;0.45;;;;;;;9.78;100.00;97685.53;15274762;19;20010;-62
2023/12/29 16:59:10;;;;;;;1.48;0.52;;;;;;;9.84;100.00;97668.69;15287885;19;20434;-63
2023/12/29 17:04:35;;;;;;;0.73;0.50;;;;;;;9.86;100.00;97665.84;15283274;19;20020;-64
2023/12/29 17:10:03;;;;;;;0.43;0.30;;;;;;;9.84;100.00;97649.84;15285576;19;20015;-62
2023/12/29 17:15:28;;;;;;;1.70;0.55;;;;;;;9.77;100.00;97651.59;15287634;19;20728;-64
2023/12/29 17:20:52;;;;;;;0.75;0.40;;;;;;;9.74;100.00;97657.31;15283172;19;20037;-63
2023/12/29 17:26:20;;;;;;;1.67;0.40;;;;;;;9.77;100.00;97678.50;15277501;19;20014;-64
2023/12/29 17:31:51;;;;;;;1.48;0.40;;;;;;;9.79;100.00;97662.16;15281659;19;20051;-63
2023/12/29 17:37:17;;;;;;;0.47;0.28;;;;;;;9.77;100.00;97656.97;15283189;19;20812;-63
2023/12/29 17:42:44;;;;;;;0.75;0.40;;;;;;;9.77;100.00;97651.59;15279418;19;20037;-64
2023/12/29 17:48:10;;;;;;;0.93;0.30;;;;;;;9.70;100.00;97667.59;15282450;19;20010;-64
2023/12/29 17:53:34;;;;;;;0.63;0.28;;;;;;;9.67;100.00;97637.53;15281463;19;20020;-64
2023/12/29 17:59:01;;;;;;;1.30;0.30;;;;;;;9.68;100.00;97658.03;15285431;19;20862;-63
2023/12/29 18:04:27;;;;;;;0.73;0.20;;;;;;;9.70;100.00;97683.72;15280856;19;20177;-64
2023/12/29 18:09:52;;;;;;;0.30;0.30;;;;;;;9.72;100.00;97653.94;15278676;19;20352;-63
2023/12/29 18:15:20;;;;;;;0.47;0.30;;;;;;;9.76;100.00;97663.34;15283690;19;20526;-62
2023/12/29 18:20:48;;;;;;;0.95;0.30;;;;;;;9.78;100.00;97664.03;15282867;19;20363;-63
2023/12/29 18:26:13;;;;;;;2.85;0.40;;;;;;;9.77;100.00;97643.53;15280541;19;20627;-64
2023/12/29 18:31:46;;;;;;;0.32;0.30;;;;;;;9.73;100.00;97655.63;15276333;19;20019;-64
2023/12/29 18:37:30;;;;;;;1.20;0.32;;;;;;;9.68;100.00;97641.88;15281784;19;20029;-63
2023/12/29 18:42:56;;;;;;;0.32;0.30;;;;;;;9.69;100.00;97644.38;15280252;19;20017;-64
2023/12/29 18:48:24;;;;;;;1.13;0.40;;;;;;;9.72;100.00;97662.03;15279309;19;20025;-63
2023/12/29 18:53:49;;;;;;;0.85;0.30;;;;;;;9.79;100.00;97648.72;15281174;19;20035;-64
2023/12/29 18:59:13;;;;;;;0.40;0.38;;;;;;;9.83;100.00;97645.50;15279793;19;20014;-64
2023/12/29 19:04:40;;;;;;;1.73;0.50;;;;;;;9.90;100.00;97660.94;15279706;19;20551;-65
2023/12/29 19:10:08;;;;;;;0.98;0.40;;;;;;;9.92;100.00;97650.84;15272383;19;20355;-65
2023/12/29 19:15:33;;;;;;;0.50;0.40;;;;;;;9.83;100.00;97650.88;15270811;19;20018;-64
2023/12/29 19:21:00;;;;;;;0.68;0.32;;;;;;;9.84;100.00;97655.25;15276575;19;20015;-65
2023/12/29 19:26:28;;;;;;;0.77;0.40;;;;;;;9.86;100.00;97650.53;15272190;19;20071;-65
2023/12/29 19:31:59;;;;;;;0.57;0.30;;;;;;;9.89;100.00;97649.34;15271277;19;20022;-65
2023/12/29 19:37:27;;;;;;;0.30;0.30;;;;;;;9.89;100.00;97645.81;15271938;19;20758;-64
2023/12/29 19:42:52;;;;;;;0.47;0.30;;;;;;;9.86;100.00;97647.84;15273192;19;20021;-66
2023/12/29 19:48:17;;;;;;;0.95;0.40;;;;;;;9.97;100.00;97635.84;15270584;19;20025;-63
2023/12/29 19:53:44;;;;;;;0.55;0.30;;;;;;;10.07;100.00;97638.31;15273363;19;20011;-63
2023/12/29 19:59:09;;;;;;;0.40;0.20;;;;;;;10.10;100.00;97645.19;15275741;19;20045;-62
2023/12/29 20:04:33;;;;;;;0.22;0.22;;;;;;;10.09;100.00;97649.72;15270453;19;20025;-61
2023/12/29 20:10:01;;;;;;;0.77;0.30;;;;;;;10.11;100.00;97644.19;15270798;19;20018;-61
2023/12/29 20:15:25;;;;;;;0.73;0.30;;;;;;;10.08;100.00;97639.97;15272906;19;20029;-61
2023/12/29 20:20:50;;;;;;;0.30;0.20;;;;;;;9.99;100.00;97633.84;15274418;19;20559;-64
2023/12/29 20:26:17;;;;;;;1.20;0.50;;;;;;;9.95;100.00;97643.25;15273371;19;20021;-62
2023/12/29 20:31:43;;;;;;;0.60;0.30;;;;;;;9.99;100.00;97633.84;15280933;19;20463;-63
2023/12/29 20:37:07;;;;;;;0.88;0.40;;;;;;;10.02;100.00;97648.78;15286065;19;20094;-63
2023/12/29 20:42:35;;;;;;;0.20;0.20;;;;;;;10.02;100.00;97628.06;15279452;19;20018;-62
2023/12/29 20:47:59;;;;;;;1.05;0.40;;;;;;;10.00;100.00;97634.66;15278296;19;20038;-63
2023/12/29 20:53:26;;;;;;;1.02;0.35;;;;;;;10.03;100.00;97639.69;15286597;19;20020;-62
2023/12/29 20:58:54;;;;;;;0.57;0.30;;;;;;;10.02;100.00;97629.94;15287759;19;20042;-63
2023/12/29 21:04:19;;;;;;;1.02;0.35;;;;;;;9.98;100.00;97637.53;15287566;19;20038;-61
2023/12/29 21:09:43;;;;;;;0.55;0.38;;;;;;;9.95;100.00;97605.59;15277616;19;20022;-62
2023/12/29 21:15:12;;;;;;;1.88;0.40;;;;;;;9.98;100.00;97636.69;15288617;19;20022;-63
2023/12/29 21:20:36;;;;;;;0.43;0.40;;;;;;;9.99;100.00;97630.28;15278564;19;20093;-62
2023/12/29 21:26:01;;;;;;;2.08;0.40;;;;;;;9.96;100.00;97623.41;15288226;19;20615;-62
2023/12/29 21:31:29;;;;;;;1.65;0.50;;;;;;;9.83;100.00;97618.59;15271489;19;20367;-61
2023/12/29 21:36:55;;;;;;;0.90;0.38;;;;;;;9.86;100.00;97631.69;15274979;19;20024;-60
2023/12/29 21:42:20;;;;;;;0.63;0.30;;;;;;;9.84;100.00;97614.06;15276394;19;20014;-62
2023/12/29 21:47:48;;;;;;;0.77;0.30;;;;;;;9.78;100.00;97636.28;15278522;19;20078;-62
2023/12/29 21:53:12;;;;;;;0.88;0.40;;;;;;;9.81;100.00;97619.78;15278101;19;20019;-62
2023/12/29 21:58:39;;;;;;;0.60;0.40;;;;;;;9.82;100.00;97626.84;15284225;19;20018;-60
2023/12/29 22:04:08;;;;;;;1.90;0.50;;;;;;;9.79;100.00;97628.03;15284139;19;20297;-66
2023/12/29 22:09:33;;;;;;;0.63;0.30;;;;;;;9.76;100.00;97632.94;15282239;19;20022;-65
2023/12/29 22:14:57;;;;;;;1.02;0.40;;;;;;;9.72;100.00;97643.19;15278090;19;20010;-65
2023/12/29 22:20:25;;;;;;;0.98;0.40;;;;;;;9.71;100.00;97638.81;15283286;19;20046;-64
2023/12/29 22:25:49;;;;;;;0.32;0.20;;;;;;;9.73;100.00;97642.19;15280536;19;20015;-64
2023/12/29 22:31:16;;;;;;;0.40;0.40;;;;;;;9.77;100.00;97651.59;15279016;19;20021;-65
2023/12/29 22:36:43;;;;;;;0.50;0.30;;;;;;;9.75;100.00;97637.47;15281698;19;20010;-65
2023/12/29 22:42:09;;;;;;;0.95;0.35;;;;;;;9.76;100.00;97633.78;15280207;19;20018;-65
2023/12/29 22:47:34;;;;;;;0.68;0.40;;;;;;;9.71;100.00;97637.00;15277726;19;20014;-65
2023/12/29 22:53:02;;;;;;;0.47;0.30;;;;;;;9.65;100.00;97642.22;15283141;19;20026;-64
2023/12/29 22:58:26;;;;;;;0.45;0.30;;;;;;;9.62;100.00;97637.19;15277044;19;20014;-64
2023/12/29 23:03:51;;;;;;;0.85;0.50;;;;;;;9.53;100.00;97623.78;15276433;19;20417;-66
2023/12/29 23:09:18;;;;;;;1.55;0.50;;;;;;;9.42;100.00;97632.22;15275538;19;20018;-66
2023/12/29 23:14:46;;;;;;;1.05;0.55;;;;;;;9.30;100.00;97644.38;15276897;19;20475;-66
2023/12/29 23:20:12;;;;;;;0.50;0.30;;;;;;;9.24;100.00;97638.66;15276412;19;20019;-63
2023/12/29 23:25:39;;;;;;;0.85;0.35;;;;;;;9.19;100.00;97643.72;15280529;19;20046;-65
2023/12/29 23:31:11;;;;;;;0.60;0.40;;;;;;;9.12;100.00;97631.97;15273271;19;20381;-64
2023/12/29 23:36:36;;;;;;;0.60;0.30;;;;;;;9.07;100.00;97627.09;15282740;19;20020;-64
2023/12/29 23:42:03;;;;;;;0.73;0.30;;;;;;;9.10;100.00;97650.13;15276240;19;20649;-65
2023/12/29 23:47:28;;;;;;;0.60;0.43;;;;;;;9.08;100.00;97646.78;15274477;19;20430;-65
2023/12/29 23:52:52;;;;;;;1.05;0.30;;;;;;;9.11;100.00;97646.44;15273299;19;20014;-65
2023/12/29 23:58:20;;;;;;;1.50;0.40;;;;;;;9.24;100.00;97635.97;15278551;19;20018;-64
